KBLH

Details ICAO KBLH (BLH)
Name BLYTHE
Region United States
Timezone America/Los_Angeles (UTC-8.0)
Plans Departing 6
Arriving 10
Stats Elevation 399 ft / 122 m (AMSL)
Location 33.619318° -114.716882°
Runways 2
Magnetic Variation 11.109° E
Sunrise 2017-12-11 14:34:54 UTC / 2017-12-11 06:34:54 Local
Sunset 2017-12-12 00:32:33 UTC / 2017-12-11 16:32:33 Local
Advertisement - Login to hide

Runways

ID Width Length Bearing (true) Bearing (mag) Surface Threshold Offset Overrun Length
08 150 ft / 46 m 6,531 ft / 1,991 m 90.21° 79.10° Asphalt 0 ft / 0 m 769 ft / 234 m
17 100 ft / 30 m 5,816 ft / 1,773 m 180.22° 169.11° Asphalt 0 ft / 0 m 212 ft / 65 m
26 150 ft / 46 m 6,531 ft / 1,991 m 270.22° 259.11° Asphalt 0 ft / 0 m 424 ft / 129 m
35 100 ft / 30 m 5,816 ft / 1,773 m 0.22° 349.11° Asphalt 0 ft / 0 m 200 ft / 61 m

Map

Weather


0- 5 10 15 20 25 30 35+ Temperature / ° C

Clouds and Precipitation
Forecast for 2017-12-12 00:00 UTC. Updated 2 hours ago

Ground ~20,000 ft ~40,000 ft Winds

METAR

KBLH 112352Z AUTO 08006KT 10SM CLR 22/M08 A3019 RMK AO2 SLP221 T02171078 10256 20183 55004

TAF

KBLH 112327Z 1200/1224 36007KT P6SM SCT250

Frequencies

Recorded 120.17 MHz ASOS
Unicom 122.80 MHz CTAF/UNICOM
Warning: Do not use this data for real-world aviation or navigation. No guarantee of current accuracy is given.